PWSweather.com
Personal Weather Stations
Station Observations
HESKRFRR38
Schwerin, Germany, Klein RogahnDE 19073

Schwerin, GermanyKlein RogahnDE 19073

Lat: 53.6059537, Lon: 11.3412162

Elevation: 167.3226

Station Type: VantagePro2

wetter.hes61.de

High Low Average
Temperature 44.9°F7.2°C 32.4°F0.2°C 38.2°F3.4°C
Dew Point 44.4°F6.9°C 31.0°F-0.6°C 37.0°F2.8°C
Winds 17.0 mph 27.4 kmh 6.0 mph 9.7 kmh 11.0 mph WSW17.7 kmh WSW
Wind Gusts 23.0 mph37.0 kmh 9.0 mph14.5 kmh 15.0 mph24.1 kmh
Humidity 98% 92% 95%
Pressure 30.14 in1020.7 mb 29.84 in1010.5 mb -
Precipitation 0.05 in1.3 mm - -
Hour Temp Dew Point Humidity Winds Wind Gusts Pressure Precip Precip Rate Daily Precip Total
12:00 AM 32.5°F0.3°C 31.0°F-0.6°C 94% 8.0 mph SW12.9 kmh SW 11.0 mph17.7 kmh 30.14 in1020.7 mb 0.00 in0.0 mm 0.00 in0.0 mm 0.00 in0.0 mm
12:05 AM 32.5°F0.3°C 31.0°F-0.6°C 94% 7.0 mph SW11.3 kmh SW 11.0 mph17.7 kmh 30.14 in1020.7 mb 0.00 in0.0 mm 0.00 in0.0 mm 0.00 in0.0 mm
12:10 AM 32.5°F0.3°C 31.0°F-0.6°C 94% 7.0 mph SW11.3 kmh SW 10.0 mph16.1 kmh 30.14 in1020.7 mb 0.00 in0.0 mm 0.00 in0.0 mm 0.00 in0.0 mm
12:15 AM 32.5°F0.3°C 31.2°F-0.4°C 95% 7.0 mph SW11.3 kmh SW 11.0 mph17.7 kmh 30.13 in1020.3 mb 0.00 in0.0 mm 0.00 in0.0 mm 0.00 in0.0 mm
12:20 AM 32.4°F0.2°C 31.1°F-0.5°C 95% 6.0 mph SW9.7 kmh SW 10.0 mph16.1 kmh 30.13 in1020.3 mb 0.00 in0.0 mm 0.00 in0.0 mm 0.00 in0.0 mm
12:25 AM 32.4°F0.2°C 31.1°F-0.5°C 95% 6.0 mph SW9.7 kmh SW 10.0 mph16.1 kmh 30.13 in1020.3 mb 0.00 in0.0 mm 0.00 in0.0 mm 0.00 in0.0 mm
12:30 AM 32.4°F0.2°C 31.1°F-0.5°C 95% 6.0 mph SW9.7 kmh SW 9.0 mph14.5 kmh 30.13 in1020.3 mb 0.00 in0.0 mm 0.00 in0.0 mm 0.00 in0.0 mm
12:35 AM 32.5°F0.3°C 31.2°F-0.4°C 95% 6.0 mph SW9.7 kmh SW 10.0 mph16.1 kmh 30.12 in1020.0 mb 0.00 in0.0 mm 0.00 in0.0 mm 0.00 in0.0 mm
12:40 AM 32.5°F0.3°C 31.2°F-0.4°C 95% 7.0 mph SSW11.3 kmh SSW 10.0 mph16.1 kmh 30.12 in1020.0 mb 0.00 in0.0 mm 0.00 in0.0 mm 0.00 in0.0 mm
12:45 AM 32.5°F0.3°C 31.2°F-0.4°C 95% 6.0 mph SSW9.7 kmh SSW 10.0 mph16.1 kmh 30.12 in1020.0 mb 0.00 in0.0 mm 0.00 in0.0 mm 0.00 in0.0 mm
12:50 AM 32.5°F0.3°C 31.2°F-0.4°C 95% 7.0 mph SSW11.3 kmh SSW 10.0 mph16.1 kmh 30.12 in1020.0 mb 0.00 in0.0 mm 0.00 in0.0 mm 0.00 in0.0 mm
12:55 AM 32.5°F0.3°C 31.2°F-0.4°C 95% 7.0 mph SSW11.3 kmh SSW 10.0 mph16.1 kmh 30.12 in1020.0 mb 0.00 in0.0 mm 0.00 in0.0 mm 0.00 in0.0 mm
01:00 AM 32.5°F0.3°C 31.2°F-0.4°C 95% 7.0 mph SSW11.3 kmh SSW 9.0 mph14.5 kmh 30.12 in1020.0 mb 0.00 in0.0 mm 0.00 in0.0 mm 0.00 in0.0 mm
01:05 AM 32.5°F0.3°C 31.2°F-0.4°C 95% 7.0 mph SSW11.3 kmh SSW 10.0 mph16.1 kmh 30.12 in1020.0 mb 0.00 in0.0 mm 0.00 in0.0 mm 0.00 in0.0 mm
01:10 AM 32.5°F0.3°C 31.2°F-0.4°C 95% 8.0 mph SSW12.9 kmh SSW 11.0 mph17.7 kmh 30.11 in1019.6 mb 0.00 in0.0 mm 0.00 in0.0 mm 0.00 in0.0 mm
01:15 AM 32.5°F0.3°C 31.2°F-0.4°C 95% 8.0 mph SSW12.9 kmh SSW 10.0 mph16.1 kmh 30.11 in1019.6 mb 0.00 in0.0 mm 0.00 in0.0 mm 0.00 in0.0 mm
01:20 AM 32.4°F0.2°C 31.1°F-0.5°C 95% 8.0 mph SSW12.9 kmh SSW 11.0 mph17.7 kmh 30.11 in1019.6 mb 0.00 in0.0 mm 0.00 in0.0 mm 0.00 in0.0 mm
01:25 AM 32.5°F0.3°C 31.2°F-0.4°C 95% 7.0 mph SSW11.3 kmh SSW 11.0 mph17.7 kmh 30.11 in1019.6 mb 0.00 in0.0 mm 0.00 in0.0 mm 0.00 in0.0 mm
01:30 AM 32.5°F0.3°C 31.2°F-0.4°C 95% 8.0 mph SSW12.9 kmh SSW 11.0 mph17.7 kmh 30.11 in1019.6 mb 0.00 in0.0 mm 0.00 in0.0 mm 0.00 in0.0 mm
01:35 AM 32.5°F0.3°C 31.2°F-0.4°C 95% 6.0 mph SSW9.7 kmh SSW 10.0 mph16.1 kmh 30.10 in1019.3 mb 0.00 in0.0 mm 0.00 in0.0 mm 0.00 in0.0 mm
01:40 AM 32.5°F0.3°C 31.2°F-0.4°C 95% 6.0 mph SW9.7 kmh SW 10.0 mph16.1 kmh 30.10 in1019.3 mb 0.00 in0.0 mm 0.00 in0.0 mm 0.00 in0.0 mm
01:45 AM 32.5°F0.3°C 31.2°F-0.4°C 95% 7.0 mph SSW11.3 kmh SSW 10.0 mph16.1 kmh 30.10 in1019.3 mb 0.00 in0.0 mm 0.00 in0.0 mm 0.00 in0.0 mm
01:50 AM 32.5°F0.3°C 31.2°F-0.4°C 95% 7.0 mph SW11.3 kmh SW 10.0 mph16.1 kmh 30.10 in1019.3 mb 0.00 in0.0 mm 0.00 in0.0 mm 0.00 in0.0 mm
01:55 AM 32.5°F0.3°C 31.2°F-0.4°C 95% 7.0 mph SW11.3 kmh SW 9.0 mph14.5 kmh 30.10 in1019.3 mb 0.00 in0.0 mm 0.00 in0.0 mm 0.00 in0.0 mm
02:00 AM 32.5°F0.3°C 31.2°F-0.4°C 95% 7.0 mph SW11.3 kmh SW 10.0 mph16.1 kmh 30.10 in1019.3 mb 0.00 in0.0 mm 0.00 in0.0 mm 0.00 in0.0 mm
02:05 AM 32.6°F0.3°C 31.3°F-0.4°C 95% 7.0 mph SW11.3 kmh SW 12.0 mph19.3 kmh 30.09 in1019.0 mb 0.00 in0.0 mm 0.00 in0.0 mm 0.00 in0.0 mm
02:10 AM 32.6°F0.3°C 31.3°F-0.4°C 95% 7.0 mph SW11.3 kmh SW 12.0 mph19.3 kmh 30.09 in1019.0 mb 0.00 in0.0 mm 0.00 in0.0 mm 0.00 in0.0 mm
02:15 AM 32.5°F0.3°C 31.2°F-0.4°C 95% 7.0 mph SW11.3 kmh SW 10.0 mph16.1 kmh 30.09 in1019.0 mb 0.00 in0.0 mm 0.00 in0.0 mm 0.00 in0.0 mm
02:20 AM 32.6°F0.3°C 31.3°F-0.4°C 95% 7.0 mph SW11.3 kmh SW 11.0 mph17.7 kmh 30.09 in1019.0 mb 0.00 in0.0 mm 0.00 in0.0 mm 0.00 in0.0 mm
02:25 AM 32.5°F0.3°C 31.2°F-0.4°C 95% 6.0 mph SW9.7 kmh SW 10.0 mph16.1 kmh 30.09 in1019.0 mb 0.00 in0.0 mm 0.00 in0.0 mm 0.00 in0.0 mm
02:30 AM 32.5°F0.3°C 31.5°F-0.3°C 96% 7.0 mph SW11.3 kmh SW 10.0 mph16.1 kmh 30.09 in1019.0 mb 0.00 in0.0 mm 0.00 in0.0 mm 0.00 in0.0 mm
02:35 AM 32.6°F0.3°C 31.6°F-0.2°C 96% 7.0 mph SW11.3 kmh SW 11.0 mph17.7 kmh 30.09 in1019.0 mb 0.00 in0.0 mm 0.00 in0.0 mm 0.00 in0.0 mm
02:40 AM 32.6°F0.3°C 31.6°F-0.2°C 96% 7.0 mph SW11.3 kmh SW 12.0 mph19.3 kmh 30.08 in1018.6 mb 0.00 in0.0 mm 0.00 in0.0 mm 0.00 in0.0 mm
02:45 AM 32.6°F0.3°C 31.6°F-0.2°C 96% 6.0 mph SW9.7 kmh SW 11.0 mph17.7 kmh 30.08 in1018.6 mb 0.00 in0.0 mm 0.00 in0.0 mm 0.00 in0.0 mm
02:50 AM 32.6°F0.3°C 31.6°F-0.2°C 96% 7.0 mph SW11.3 kmh SW 11.0 mph17.7 kmh 30.08 in1018.6 mb 0.00 in0.0 mm 0.00 in0.0 mm 0.00 in0.0 mm
02:55 AM 32.7°F0.4°C 31.7°F-0.2°C 96% 6.0 mph SSW9.7 kmh SSW 10.0 mph16.1 kmh 30.07 in1018.3 mb 0.00 in0.0 mm 0.00 in0.0 mm 0.00 in0.0 mm
03:00 AM 32.7°F0.4°C 31.7°F-0.2°C 96% 7.0 mph SW11.3 kmh SW 11.0 mph17.7 kmh 30.07 in1018.3 mb 0.00 in0.0 mm 0.00 in0.0 mm 0.00 in0.0 mm
03:05 AM 32.7°F0.4°C 31.7°F-0.2°C 96% 7.0 mph SW11.3 kmh SW 10.0 mph16.1 kmh 30.07 in1018.3 mb 0.00 in0.0 mm 0.00 in0.0 mm 0.00 in0.0 mm
03:10 AM 32.7°F0.4°C 31.7°F-0.2°C 96% 8.0 mph SSW12.9 kmh SSW 11.0 mph17.7 kmh 30.07 in1018.3 mb 0.00 in0.0 mm 0.00 in0.0 mm 0.00 in0.0 mm
03:15 AM 32.7°F0.4°C 31.7°F-0.2°C 96% 8.0 mph SSW12.9 kmh SSW 11.0 mph17.7 kmh 30.06 in1017.9 mb 0.00 in0.0 mm 0.00 in0.0 mm 0.00 in0.0 mm
03:20 AM 32.7°F0.4°C 31.7°F-0.2°C 96% 7.0 mph SW11.3 kmh SW 11.0 mph17.7 kmh 30.06 in1017.9 mb 0.00 in0.0 mm 0.00 in0.0 mm 0.00 in0.0 mm
03:25 AM 32.8°F0.4°C 31.8°F-0.1°C 96% 7.0 mph SW11.3 kmh SW 12.0 mph19.3 kmh 30.06 in1017.9 mb 0.00 in0.0 mm 0.00 in0.0 mm 0.00 in0.0 mm
03:30 AM 32.8°F0.4°C 31.8°F-0.1°C 96% 8.0 mph SW12.9 kmh SW 14.0 mph22.5 kmh 30.06 in1017.9 mb 0.00 in0.0 mm 0.00 in0.0 mm 0.00 in0.0 mm
03:35 AM 32.8°F0.4°C 31.8°F-0.1°C 96% 7.0 mph SW11.3 kmh SW 15.0 mph24.1 kmh 30.05 in1017.6 mb 0.00 in0.0 mm 0.00 in0.0 mm 0.00 in0.0 mm
03:40 AM 32.9°F0.5°C 31.9°F-0.1°C 96% 8.0 mph SW12.9 kmh SW 13.0 mph20.9 kmh 30.05 in1017.6 mb 0.00 in0.0 mm 0.00 in0.0 mm 0.00 in0.0 mm
03:45 AM 32.9°F0.5°C 31.9°F-0.1°C 96% 8.0 mph SSW12.9 kmh SSW 13.0 mph20.9 kmh 30.05 in1017.6 mb 0.00 in0.0 mm 0.00 in0.0 mm 0.00 in0.0 mm
03:50 AM 33.0°F0.6°C 32.0°F0.0°C 96% 7.0 mph SSW11.3 kmh SSW 13.0 mph20.9 kmh 30.04 in1017.3 mb 0.00 in0.0 mm 0.00 in0.0 mm 0.00 in0.0 mm
03:55 AM 32.9°F0.5°C 31.9°F-0.1°C 96% 7.0 mph SW11.3 kmh SW 12.0 mph19.3 kmh 30.05 in1017.6 mb 0.00 in0.0 mm 0.00 in0.0 mm 0.00 in0.0 mm
04:00 AM 33.0°F0.6°C 32.0°F0.0°C 96% 8.0 mph SW12.9 kmh SW 13.0 mph20.9 kmh 30.05 in1017.6 mb 0.00 in0.0 mm 0.00 in0.0 mm 0.00 in0.0 mm
04:05 AM 33.0°F0.6°C 32.0°F0.0°C 96% 8.0 mph SW12.9 kmh SW 13.0 mph20.9 kmh 30.04 in1017.3 mb 0.00 in0.0 mm 0.00 in0.0 mm 0.00 in0.0 mm
04:10 AM 33.1°F0.6°C 32.1°F0.1°C 96% 9.0 mph SW14.5 kmh SW 13.0 mph20.9 kmh 30.04 in1017.3 mb 0.00 in0.0 mm 0.00 in0.0 mm 0.00 in0.0 mm
04:15 AM 33.1°F0.6°C 32.1°F0.1°C 96% 8.0 mph SW12.9 kmh SW 12.0 mph19.3 kmh 30.04 in1017.3 mb 0.00 in0.0 mm 0.00 in0.0 mm 0.00 in0.0 mm
04:20 AM 33.2°F0.7°C 32.2°F0.1°C 96% 7.0 mph SW11.3 kmh SW 11.0 mph17.7 kmh 30.04 in1017.3 mb 0.00 in0.0 mm 0.00 in0.0 mm 0.00 in0.0 mm
04:25 AM 33.2°F0.7°C 32.2°F0.1°C 96% 8.0 mph SW12.9 kmh SW 12.0 mph19.3 kmh 30.03 in1016.9 mb 0.00 in0.0 mm 0.00 in0.0 mm 0.00 in0.0 mm
04:30 AM 33.2°F0.7°C 32.2°F0.1°C 96% 7.0 mph SW11.3 kmh SW 11.0 mph17.7 kmh 30.04 in1017.3 mb 0.00 in0.0 mm 0.00 in0.0 mm 0.00 in0.0 mm
04:35 AM 33.3°F0.7°C 32.3°F0.2°C 96% 7.0 mph SW11.3 kmh SW 10.0 mph16.1 kmh 30.03 in1016.9 mb 0.00 in0.0 mm 0.00 in0.0 mm 0.00 in0.0 mm
04:40 AM 33.4°F0.8°C 32.4°F0.2°C 96% 8.0 mph SW12.9 kmh SW 12.0 mph19.3 kmh 30.03 in1016.9 mb 0.01 in0.3 mm 0.12 in3.0 mm 0.01 in0.3 mm
04:45 AM 33.4°F0.8°C 32.4°F0.2°C 96% 7.0 mph SW11.3 kmh SW 10.0 mph16.1 kmh 30.03 in1016.9 mb 0.01 in0.3 mm 0.00 in0.0 mm 0.01 in0.3 mm
04:50 AM 33.5°F0.8°C 32.5°F0.3°C 96% 9.0 mph SW14.5 kmh SW 13.0 mph20.9 kmh 30.02 in1016.6 mb 0.01 in0.3 mm 0.00 in0.0 mm 0.01 in0.3 mm
04:55 AM 33.6°F0.9°C 32.6°F0.3°C 96% 9.0 mph SW14.5 kmh SW 13.0 mph20.9 kmh 30.02 in1016.6 mb 0.01 in0.3 mm 0.00 in0.0 mm 0.01 in0.3 mm
05:00 AM 33.7°F0.9°C 32.7°F0.4°C 96% 9.0 mph SW14.5 kmh SW 11.0 mph17.7 kmh 30.02 in1016.6 mb 0.02 in0.5 mm 0.01 in0.3 mm 0.02 in0.5 mm
05:05 AM 33.8°F1.0°C 32.8°F0.4°C 96% 9.0 mph SW14.5 kmh SW 12.0 mph19.3 kmh 30.02 in1016.6 mb 0.02 in0.5 mm 0.00 in0.0 mm 0.02 in0.5 mm
05:10 AM 33.8°F1.0°C 32.8°F0.4°C 96% 7.0 mph SW11.3 kmh SW 10.0 mph16.1 kmh 30.02 in1016.6 mb 0.02 in0.5 mm 0.00 in0.0 mm 0.02 in0.5 mm
05:15 AM 33.8°F1.0°C 32.8°F0.4°C 96% 7.0 mph SW11.3 kmh SW 11.0 mph17.7 kmh 30.01 in1016.3 mb 0.02 in0.5 mm 0.00 in0.0 mm 0.02 in0.5 mm
05:20 AM 33.9°F1.1°C 32.9°F0.5°C 96% 8.0 mph SW12.9 kmh SW 13.0 mph20.9 kmh 30.01 in1016.3 mb 0.02 in0.5 mm 0.00 in0.0 mm 0.02 in0.5 mm
05:25 AM 34.1°F1.2°C 33.1°F0.6°C 96% 8.0 mph WSW12.9 kmh WSW 13.0 mph20.9 kmh 30.01 in1016.3 mb 0.02 in0.5 mm 0.00 in0.0 mm 0.02 in0.5 mm
05:30 AM 34.1°F1.2°C 33.1°F0.6°C 96% 9.0 mph WSW14.5 kmh WSW 14.0 mph22.5 kmh 30.01 in1016.3 mb 0.02 in0.5 mm 0.00 in0.0 mm 0.02 in0.5 mm
05:35 AM 34.3°F1.3°C 33.3°F0.7°C 96% 10.0 mph WSW16.1 kmh WSW 14.0 mph22.5 kmh 30.00 in1015.9 mb 0.02 in0.5 mm 0.00 in0.0 mm 0.02 in0.5 mm
05:40 AM 34.4°F1.3°C 33.4°F0.8°C 96% 10.0 mph WSW16.1 kmh WSW 14.0 mph22.5 kmh 30.00 in1015.9 mb 0.02 in0.5 mm 0.00 in0.0 mm 0.02 in0.5 mm
05:45 AM 34.4°F1.3°C 33.4°F0.8°C 96% 11.0 mph WSW17.7 kmh WSW 15.0 mph24.1 kmh 30.00 in1015.9 mb 0.02 in0.5 mm 0.00 in0.0 mm 0.02 in0.5 mm
05:50 AM 34.6°F1.4°C 33.6°F0.9°C 96% 11.0 mph WSW17.7 kmh WSW 14.0 mph22.5 kmh 30.00 in1015.9 mb 0.02 in0.5 mm 0.00 in0.0 mm 0.02 in0.5 mm
05:55 AM 34.6°F1.4°C 33.8°F1.0°C 97% 12.0 mph WSW19.3 kmh WSW 16.0 mph25.7 kmh 29.99 in1015.6 mb 0.02 in0.5 mm 0.00 in0.0 mm 0.03 in0.8 mm
06:00 AM 34.7°F1.5°C 33.9°F1.1°C 97% 12.0 mph WSW19.3 kmh WSW 15.0 mph24.1 kmh 29.99 in1015.6 mb 0.02 in0.5 mm 0.00 in0.0 mm 0.03 in0.8 mm
06:05 AM 34.8°F1.6°C 34.0°F1.1°C 97% 13.0 mph WSW20.9 kmh WSW 16.0 mph25.7 kmh 29.99 in1015.6 mb 0.02 in0.5 mm 0.00 in0.0 mm 0.03 in0.8 mm
06:10 AM 35.0°F1.7°C 34.0°F1.1°C 96% 13.0 mph WSW20.9 kmh WSW 16.0 mph25.7 kmh 29.98 in1015.2 mb 0.02 in0.5 mm 0.00 in0.0 mm 0.03 in0.8 mm
06:15 AM 35.1°F1.7°C 34.1°F1.2°C 96% 11.0 mph WSW17.7 kmh WSW 15.0 mph24.1 kmh 29.98 in1015.2 mb 0.02 in0.5 mm 0.00 in0.0 mm 0.03 in0.8 mm
06:20 AM 35.1°F1.7°C 34.1°F1.2°C 96% 12.0 mph WSW19.3 kmh WSW 15.0 mph24.1 kmh 29.98 in1015.2 mb 0.02 in0.5 mm 0.00 in0.0 mm 0.03 in0.8 mm
06:25 AM 35.3°F1.8°C 34.5°F1.4°C 97% 13.0 mph WSW20.9 kmh WSW 16.0 mph25.7 kmh 29.98 in1015.2 mb 0.02 in0.5 mm 0.00 in0.0 mm 0.03 in0.8 mm
06:30 AM 35.3°F1.8°C 34.5°F1.4°C 97% 11.0 mph WSW17.7 kmh WSW 15.0 mph24.1 kmh 29.98 in1015.2 mb 0.01 in0.3 mm 0.00 in0.0 mm 0.03 in0.8 mm
06:35 AM 35.4°F1.9°C 34.6°F1.4°C 97% 10.0 mph WSW16.1 kmh WSW 13.0 mph20.9 kmh 29.98 in1015.2 mb 0.01 in0.3 mm 0.00 in0.0 mm 0.03 in0.8 mm
06:40 AM 35.5°F1.9°C 34.7°F1.5°C 97% 10.0 mph WSW16.1 kmh WSW 14.0 mph22.5 kmh 29.98 in1015.2 mb 0.01 in0.3 mm 0.00 in0.0 mm 0.03 in0.8 mm
06:45 AM 35.6°F2.0°C 34.8°F1.6°C 97% 10.0 mph W16.1 kmh W 14.0 mph22.5 kmh 29.98 in1015.2 mb 0.02 in0.5 mm 0.12 in3.0 mm 0.04 in1.0 mm
06:50 AM 35.7°F2.1°C 34.9°F1.6°C 97% 9.0 mph WSW14.5 kmh WSW 12.0 mph19.3 kmh 29.98 in1015.2 mb 0.02 in0.5 mm 0.00 in0.0 mm 0.04 in1.0 mm
06:55 AM 35.7°F2.1°C 34.9°F1.6°C 97% 8.0 mph W12.9 kmh W 11.0 mph17.7 kmh 29.98 in1015.2 mb 0.01 in0.3 mm 0.00 in0.0 mm 0.04 in1.0 mm
07:00 AM 35.8°F2.1°C 35.0°F1.7°C 97% 9.0 mph W14.5 kmh W 11.0 mph17.7 kmh 29.98 in1015.2 mb 0.01 in0.3 mm 0.00 in0.0 mm 0.04 in1.0 mm
07:05 AM 36.0°F2.2°C 35.2°F1.8°C 97% 9.0 mph WSW14.5 kmh WSW 13.0 mph20.9 kmh 29.98 in1015.2 mb 0.01 in0.3 mm 0.00 in0.0 mm 0.04 in1.0 mm
07:10 AM 36.1°F2.3°C 35.3°F1.8°C 97% 9.0 mph WSW14.5 kmh WSW 12.0 mph19.3 kmh 29.98 in1015.2 mb 0.01 in0.3 mm 0.00 in0.0 mm 0.04 in1.0 mm
07:15 AM 36.2°F2.3°C 35.4°F1.9°C 97% 9.0 mph WSW14.5 kmh WSW 12.0 mph19.3 kmh 29.98 in1015.2 mb 0.01 in0.3 mm 0.00 in0.0 mm 0.04 in1.0 mm
07:20 AM 36.3°F2.4°C 35.5°F1.9°C 97% 9.0 mph WSW14.5 kmh WSW 11.0 mph17.7 kmh 29.98 in1015.2 mb 0.01 in0.3 mm 0.00 in0.0 mm 0.04 in1.0 mm
07:25 AM 36.4°F2.4°C 35.6°F2.0°C 97% 9.0 mph WSW14.5 kmh WSW 11.0 mph17.7 kmh 29.98 in1015.2 mb 0.01 in0.3 mm 0.00 in0.0 mm 0.04 in1.0 mm
07:30 AM 36.5°F2.5°C 35.7°F2.1°C 97% 9.0 mph WSW14.5 kmh WSW 12.0 mph19.3 kmh 29.97 in1014.9 mb 0.01 in0.3 mm 0.00 in0.0 mm 0.04 in1.0 mm
07:35 AM 36.7°F2.6°C 35.9°F2.2°C 97% 9.0 mph WSW14.5 kmh WSW 11.0 mph17.7 kmh 29.97 in1014.9 mb 0.01 in0.3 mm 0.00 in0.0 mm 0.04 in1.0 mm
07:40 AM 36.8°F2.7°C 36.0°F2.2°C 97% 10.0 mph WSW16.1 kmh WSW 13.0 mph20.9 kmh 29.97 in1014.9 mb 0.01 in0.3 mm 0.00 in0.0 mm 0.04 in1.0 mm
07:45 AM 36.9°F2.7°C 36.1°F2.3°C 97% 8.0 mph WSW12.9 kmh WSW 11.0 mph17.7 kmh 29.97 in1014.9 mb 0.00 in0.0 mm 0.00 in0.0 mm 0.04 in1.0 mm
07:50 AM 37.1°F2.8°C 36.3°F2.4°C 97% 9.0 mph WSW14.5 kmh WSW 11.0 mph17.7 kmh 29.96 in1014.6 mb 0.00 in0.0 mm 0.00 in0.0 mm 0.04 in1.0 mm
07:55 AM 37.2°F2.9°C 36.4°F2.4°C 97% 10.0 mph WSW16.1 kmh WSW 13.0 mph20.9 kmh 29.96 in1014.6 mb 0.00 in0.0 mm 0.00 in0.0 mm 0.04 in1.0 mm
08:00 AM 37.3°F2.9°C 36.5°F2.5°C 97% 10.0 mph WSW16.1 kmh WSW 13.0 mph20.9 kmh 29.96 in1014.6 mb 0.00 in0.0 mm 0.00 in0.0 mm 0.04 in1.0 mm
08:05 AM 37.5°F3.1°C 36.7°F2.6°C 97% 9.0 mph WSW14.5 kmh WSW 13.0 mph20.9 kmh 29.96 in1014.6 mb 0.00 in0.0 mm 0.00 in0.0 mm 0.04 in1.0 mm
08:10 AM 37.6°F3.1°C 36.8°F2.7°C 97% 10.0 mph WSW16.1 kmh WSW 12.0 mph19.3 kmh 29.96 in1014.6 mb 0.00 in0.0 mm 0.00 in0.0 mm 0.04 in1.0 mm
08:15 AM 37.7°F3.2°C 36.9°F2.7°C 97% 10.0 mph WSW16.1 kmh WSW 13.0 mph20.9 kmh 29.96 in1014.6 mb 0.00 in0.0 mm 0.00 in0.0 mm 0.04 in1.0 mm
08:20 AM 37.8°F3.2°C 37.0°F2.8°C 97% 9.0 mph WSW14.5 kmh WSW 12.0 mph19.3 kmh 29.96 in1014.6 mb 0.00 in0.0 mm 0.00 in0.0 mm 0.04 in1.0 mm
08:25 AM 37.9°F3.3°C 37.1°F2.8°C 97% 10.0 mph WSW16.1 kmh WSW 13.0 mph20.9 kmh 29.96 in1014.6 mb 0.00 in0.0 mm 0.00 in0.0 mm 0.04 in1.0 mm
08:30 AM 38.0°F3.3°C 37.2°F2.9°C 97% 9.0 mph WSW14.5 kmh WSW 11.0 mph17.7 kmh 29.96 in1014.6 mb 0.00 in0.0 mm 0.00 in0.0 mm 0.04 in1.0 mm
08:35 AM 38.1°F3.4°C 37.3°F2.9°C 97% 9.0 mph WSW14.5 kmh WSW 12.0 mph19.3 kmh 29.96 in1014.6 mb 0.00 in0.0 mm 0.00 in0.0 mm 0.04 in1.0 mm
08:40 AM 38.2°F3.4°C 37.4°F3.0°C 97% 10.0 mph WSW16.1 kmh WSW 14.0 mph22.5 kmh 29.96 in1014.6 mb 0.00 in0.0 mm 0.00 in0.0 mm 0.04 in1.0 mm
08:45 AM 38.3°F3.5°C 37.5°F3.1°C 97% 10.0 mph WSW16.1 kmh WSW 15.0 mph24.1 kmh 29.96 in1014.6 mb 0.00 in0.0 mm 0.00 in0.0 mm 0.04 in1.0 mm
08:50 AM 38.5°F3.6°C 37.7°F3.2°C 97% 11.0 mph WSW17.7 kmh WSW 13.0 mph20.9 kmh 29.96 in1014.6 mb 0.00 in0.0 mm 0.00 in0.0 mm 0.04 in1.0 mm
08:55 AM 38.6°F3.7°C 37.8°F3.2°C 97% 10.0 mph WSW16.1 kmh WSW 13.0 mph20.9 kmh 29.95 in1014.2 mb 0.00 in0.0 mm 0.00 in0.0 mm 0.04 in1.0 mm
09:00 AM 38.8°F3.8°C 38.0°F3.3°C 97% 11.0 mph WSW17.7 kmh WSW 14.0 mph22.5 kmh 29.95 in1014.2 mb 0.00 in0.0 mm 0.00 in0.0 mm 0.04 in1.0 mm
09:05 AM 38.8°F3.8°C 38.0°F3.3°C 97% 10.0 mph WSW16.1 kmh WSW 13.0 mph20.9 kmh 29.95 in1014.2 mb 0.00 in0.0 mm 0.00 in0.0 mm 0.04 in1.0 mm
09:10 AM 38.9°F3.8°C 38.1°F3.4°C 97% 11.0 mph W17.7 kmh W 13.0 mph20.9 kmh 29.95 in1014.2 mb 0.00 in0.0 mm 0.00 in0.0 mm 0.04 in1.0 mm
09:15 AM 38.9°F3.8°C 38.1°F3.4°C 97% 10.0 mph WSW16.1 kmh WSW 14.0 mph22.5 kmh 29.95 in1014.2 mb 0.00 in0.0 mm 0.00 in0.0 mm 0.04 in1.0 mm
09:20 AM 39.0°F3.9°C 38.2°F3.4°C 97% 10.0 mph W16.1 kmh W 12.0 mph19.3 kmh 29.95 in1014.2 mb 0.00 in0.0 mm 0.00 in0.0 mm 0.04 in1.0 mm
09:25 AM 39.1°F3.9°C 38.3°F3.5°C 97% 9.0 mph W14.5 kmh W 13.0 mph20.9 kmh 29.95 in1014.2 mb 0.00 in0.0 mm 0.00 in0.0 mm 0.04 in1.0 mm
09:30 AM 39.1°F3.9°C 38.3°F3.5°C 97% 9.0 mph W14.5 kmh W 12.0 mph19.3 kmh 29.95 in1014.2 mb 0.00 in0.0 mm 0.00 in0.0 mm 0.04 in1.0 mm
09:35 AM 39.3°F4.1°C 38.5°F3.6°C 97% 10.0 mph WSW16.1 kmh WSW 15.0 mph24.1 kmh 29.95 in1014.2 mb 0.00 in0.0 mm 0.00 in0.0 mm 0.04 in1.0 mm
09:40 AM 39.3°F4.1°C 38.5°F3.6°C 97% 10.0 mph W16.1 kmh W 15.0 mph24.1 kmh 29.95 in1014.2 mb 0.00 in0.0 mm 0.00 in0.0 mm 0.04 in1.0 mm
09:45 AM 39.4°F4.1°C 38.6°F3.7°C 97% 10.0 mph W16.1 kmh W 12.0 mph19.3 kmh 29.95 in1014.2 mb 0.00 in0.0 mm 0.00 in0.0 mm 0.04 in1.0 mm
09:50 AM 39.5°F4.2°C 38.7°F3.7°C 97% 10.0 mph W16.1 kmh W 13.0 mph20.9 kmh 29.95 in1014.2 mb 0.00 in0.0 mm 0.00 in0.0 mm 0.04 in1.0 mm
09:55 AM 39.6°F4.2°C 38.8°F3.8°C 97% 10.0 mph W16.1 kmh W 15.0 mph24.1 kmh 29.95 in1014.2 mb 0.00 in0.0 mm 0.00 in0.0 mm 0.04 in1.0 mm
10:00 AM 39.7°F4.3°C 38.9°F3.8°C 97% 10.0 mph WSW16.1 kmh WSW 13.0 mph20.9 kmh 29.94 in1013.9 mb 0.00 in0.0 mm 0.00 in0.0 mm 0.04 in1.0 mm
10:05 AM 39.8°F4.3°C 39.0°F3.9°C 97% 10.0 mph WSW16.1 kmh WSW 12.0 mph19.3 kmh 29.94 in1013.9 mb 0.00 in0.0 mm 0.00 in0.0 mm 0.04 in1.0 mm
10:10 AM 39.8°F4.3°C 39.0°F3.9°C 97% 10.0 mph WSW16.1 kmh WSW 14.0 mph22.5 kmh 29.94 in1013.9 mb 0.00 in0.0 mm 0.00 in0.0 mm 0.04 in1.0 mm
10:15 AM 39.9°F4.4°C 39.1°F3.9°C 97% 11.0 mph WSW17.7 kmh WSW 14.0 mph22.5 kmh 29.94 in1013.9 mb 0.00 in0.0 mm 0.00 in0.0 mm 0.04 in1.0 mm
10:20 AM 40.0°F4.4°C 39.2°F4.0°C 97% 11.0 mph WSW17.7 kmh WSW 14.0 mph22.5 kmh 29.93 in1013.5 mb 0.00 in0.0 mm 0.00 in0.0 mm 0.04 in1.0 mm
10:25 AM 40.1°F4.5°C 39.3°F4.1°C 97% 11.0 mph WSW17.7 kmh WSW 15.0 mph24.1 kmh 29.94 in1013.9 mb 0.00 in0.0 mm 0.00 in0.0 mm 0.04 in1.0 mm
10:30 AM 40.2°F4.6°C 39.4°F4.1°C 97% 11.0 mph WSW17.7 kmh WSW 14.0 mph22.5 kmh 29.93 in1013.5 mb 0.00 in0.0 mm 0.00 in0.0 mm 0.04 in1.0 mm
10:35 AM 40.3°F4.6°C 39.5°F4.2°C 97% 10.0 mph WSW16.1 kmh WSW 13.0 mph20.9 kmh 29.93 in1013.5 mb 0.00 in0.0 mm 0.00 in0.0 mm 0.04 in1.0 mm
10:40 AM 40.3°F4.6°C 39.5°F4.2°C 97% 9.0 mph WSW14.5 kmh WSW 11.0 mph17.7 kmh 29.93 in1013.5 mb 0.00 in0.0 mm 0.00 in0.0 mm 0.04 in1.0 mm
10:45 AM 40.4°F4.7°C 39.6°F4.2°C 97% 10.0 mph WSW16.1 kmh WSW 14.0 mph22.5 kmh 29.93 in1013.5 mb 0.00 in0.0 mm 0.00 in0.0 mm 0.04 in1.0 mm
10:50 AM 40.4°F4.7°C 39.6°F4.2°C 97% 9.0 mph WSW14.5 kmh WSW 13.0 mph20.9 kmh 29.93 in1013.5 mb 0.00 in0.0 mm 0.00 in0.0 mm 0.04 in1.0 mm
10:55 AM 40.5°F4.7°C 39.7°F4.3°C 97% 9.0 mph WSW14.5 kmh WSW 13.0 mph20.9 kmh 29.93 in1013.5 mb 0.00 in0.0 mm 0.00 in0.0 mm 0.04 in1.0 mm
11:00 AM 40.6°F4.8°C 39.8°F4.3°C 97% 9.0 mph WSW14.5 kmh WSW 12.0 mph19.3 kmh 29.93 in1013.5 mb 0.01 in0.3 mm 0.01 in0.3 mm 0.05 in1.3 mm
11:05 AM 40.7°F4.8°C 39.9°F4.4°C 97% 9.0 mph WSW14.5 kmh WSW 12.0 mph19.3 kmh 29.92 in1013.2 mb 0.01 in0.3 mm 0.00 in0.0 mm 0.05 in1.3 mm
11:10 AM 40.8°F4.9°C 40.0°F4.4°C 97% 9.0 mph WSW14.5 kmh WSW 14.0 mph22.5 kmh 29.92 in1013.2 mb 0.01 in0.3 mm 0.00 in0.0 mm 0.05 in1.3 mm
11:15 AM 41.0°F5.0°C 40.5°F4.7°C 98% 9.0 mph WSW14.5 kmh WSW 13.0 mph20.9 kmh 29.92 in1013.2 mb 0.01 in0.3 mm 0.00 in0.0 mm 0.05 in1.3 mm
11:20 AM 41.5°F5.3°C 41.0°F5.0°C 98% 10.0 mph W16.1 kmh W 13.0 mph20.9 kmh 29.92 in1013.2 mb 0.01 in0.3 mm 0.00 in0.0 mm 0.05 in1.3 mm
11:25 AM 42.0°F5.6°C 41.5°F5.3°C 98% 10.0 mph WSW16.1 kmh WSW 13.0 mph20.9 kmh 29.92 in1013.2 mb 0.01 in0.3 mm 0.00 in0.0 mm 0.05 in1.3 mm
11:30 AM 42.2°F5.7°C 41.7°F5.4°C 98% 10.0 mph W16.1 kmh W 13.0 mph20.9 kmh 29.92 in1013.2 mb 0.01 in0.3 mm 0.00 in0.0 mm 0.05 in1.3 mm
11:35 AM 42.3°F5.7°C 41.8°F5.4°C 98% 10.0 mph W16.1 kmh W 15.0 mph24.1 kmh 29.91 in1012.9 mb 0.01 in0.3 mm 0.00 in0.0 mm 0.05 in1.3 mm
11:40 AM 42.5°F5.8°C 42.0°F5.6°C 98% 10.0 mph W16.1 kmh W 14.0 mph22.5 kmh 29.91 in1012.9 mb 0.01 in0.3 mm 0.00 in0.0 mm 0.05 in1.3 mm
11:45 AM 42.6°F5.9°C 42.1°F5.6°C 98% 12.0 mph W19.3 kmh W 15.0 mph24.1 kmh 29.91 in1012.9 mb 0.01 in0.3 mm 0.00 in0.0 mm 0.05 in1.3 mm
11:50 AM 42.6°F5.9°C 42.1°F5.6°C 98% 11.0 mph W17.7 kmh W 15.0 mph24.1 kmh 29.91 in1012.9 mb 0.01 in0.3 mm 0.00 in0.0 mm 0.05 in1.3 mm
12:00 PM 42.9°F6.1°C 42.4°F5.8°C 98% 11.0 mph W17.7 kmh W 15.0 mph24.1 kmh 29.91 in1012.9 mb 0.00 in0.0 mm 0.00 in0.0 mm 0.05 in1.3 mm
12:05 PM 43.1°F6.2°C 42.6°F5.9°C 98% 11.0 mph W17.7 kmh W 15.0 mph24.1 kmh 29.90 in1012.5 mb 0.00 in0.0 mm 0.00 in0.0 mm 0.05 in1.3 mm
12:10 PM 43.2°F6.2°C 42.7°F5.9°C 98% 13.0 mph W20.9 kmh W 17.0 mph27.4 kmh 29.90 in1012.5 mb 0.00 in0.0 mm 0.00 in0.0 mm 0.05 in1.3 mm
12:15 PM 43.4°F6.3°C 42.9°F6.1°C 98% 12.0 mph W19.3 kmh W 17.0 mph27.4 kmh 29.90 in1012.5 mb 0.00 in0.0 mm 0.00 in0.0 mm 0.05 in1.3 mm
12:20 PM 43.6°F6.4°C 43.1°F6.2°C 98% 12.0 mph W19.3 kmh W 18.0 mph29.0 kmh 29.90 in1012.5 mb 0.00 in0.0 mm 0.00 in0.0 mm 0.05 in1.3 mm
12:25 PM 43.7°F6.5°C 43.2°F6.2°C 98% 13.0 mph W20.9 kmh W 18.0 mph29.0 kmh 29.89 in1012.2 mb 0.00 in0.0 mm 0.00 in0.0 mm 0.05 in1.3 mm
12:30 PM 43.8°F6.6°C 43.3°F6.3°C 98% 13.0 mph W20.9 kmh W 17.0 mph27.4 kmh 29.89 in1012.2 mb 0.00 in0.0 mm 0.00 in0.0 mm 0.05 in1.3 mm
12:35 PM 44.0°F6.7°C 43.5°F6.4°C 98% 14.0 mph W22.5 kmh W 18.0 mph29.0 kmh 29.89 in1012.2 mb 0.00 in0.0 mm 0.00 in0.0 mm 0.05 in1.3 mm
12:40 PM 44.3°F6.8°C 43.8°F6.6°C 98% 14.0 mph W22.5 kmh W 18.0 mph29.0 kmh 29.89 in1012.2 mb 0.00 in0.0 mm 0.00 in0.0 mm 0.05 in1.3 mm
12:45 PM 44.5°F6.9°C 44.0°F6.7°C 98% 13.0 mph WNW20.9 kmh WNW 18.0 mph29.0 kmh 29.89 in1012.2 mb 0.00 in0.0 mm 0.00 in0.0 mm 0.05 in1.3 mm
12:50 PM 44.6°F7.0°C 44.1°F6.7°C 98% 12.0 mph W19.3 kmh W 17.0 mph27.4 kmh 29.89 in1012.2 mb 0.00 in0.0 mm 0.00 in0.0 mm 0.05 in1.3 mm
12:55 PM 44.9°F7.2°C 44.4°F6.9°C 98% 13.0 mph WNW20.9 kmh WNW 17.0 mph27.4 kmh 29.88 in1011.9 mb 0.00 in0.0 mm 0.00 in0.0 mm 0.05 in1.3 mm
01:00 PM 44.8°F7.1°C 44.3°F6.8°C 98% 14.0 mph W22.5 kmh W 21.0 mph33.8 kmh 29.88 in1011.9 mb 0.00 in0.0 mm 0.00 in0.0 mm 0.05 in1.3 mm
01:05 PM 44.4°F6.9°C 43.6°F6.4°C 97% 16.0 mph WNW25.7 kmh WNW 23.0 mph37.0 kmh 29.88 in1011.9 mb 0.00 in0.0 mm 0.00 in0.0 mm 0.05 in1.3 mm
01:10 PM 44.1°F6.7°C 43.3°F6.3°C 97% 15.0 mph WNW24.1 kmh WNW 23.0 mph37.0 kmh 29.88 in1011.9 mb 0.00 in0.0 mm 0.00 in0.0 mm 0.05 in1.3 mm
01:15 PM 44.0°F6.7°C 43.2°F6.2°C 97% 15.0 mph WNW24.1 kmh WNW 23.0 mph37.0 kmh 29.87 in1011.5 mb 0.00 in0.0 mm 0.00 in0.0 mm 0.05 in1.3 mm
01:20 PM 43.8°F6.6°C 43.0°F6.1°C 97% 16.0 mph WNW25.7 kmh WNW 22.0 mph35.4 kmh 29.87 in1011.5 mb 0.00 in0.0 mm 0.00 in0.0 mm 0.05 in1.3 mm
01:25 PM 43.8°F6.6°C 43.0°F6.1°C 97% 14.0 mph WNW22.5 kmh WNW 19.0 mph30.6 kmh 29.87 in1011.5 mb 0.00 in0.0 mm 0.00 in0.0 mm 0.05 in1.3 mm
01:30 PM 43.7°F6.5°C 42.9°F6.1°C 97% 17.0 mph WNW27.4 kmh WNW 22.0 mph35.4 kmh 29.86 in1011.2 mb 0.00 in0.0 mm 0.00 in0.0 mm 0.05 in1.3 mm
01:35 PM 43.7°F6.5°C 42.9°F6.1°C 97% 16.0 mph WNW25.7 kmh WNW 20.0 mph32.2 kmh 29.86 in1011.2 mb 0.00 in0.0 mm 0.00 in0.0 mm 0.05 in1.3 mm
01:40 PM 43.7°F6.5°C 42.9°F6.1°C 97% 14.0 mph WNW22.5 kmh WNW 20.0 mph32.2 kmh 29.86 in1011.2 mb 0.00 in0.0 mm 0.00 in0.0 mm 0.05 in1.3 mm
01:45 PM 43.8°F6.6°C 43.0°F6.1°C 97% 13.0 mph WNW20.9 kmh WNW 18.0 mph29.0 kmh 29.86 in1011.2 mb 0.00 in0.0 mm 0.00 in0.0 mm 0.05 in1.3 mm
01:50 PM 43.9°F6.6°C 43.1°F6.2°C 97% 13.0 mph WNW20.9 kmh WNW 21.0 mph33.8 kmh 29.86 in1011.2 mb 0.00 in0.0 mm 0.00 in0.0 mm 0.05 in1.3 mm
01:55 PM 43.9°F6.6°C 43.1°F6.2°C 97% 14.0 mph WNW22.5 kmh WNW 19.0 mph30.6 kmh 29.86 in1011.2 mb 0.00 in0.0 mm 0.00 in0.0 mm 0.05 in1.3 mm
02:00 PM 44.1°F6.7°C 43.3°F6.3°C 97% 14.0 mph WNW22.5 kmh WNW 20.0 mph32.2 kmh 29.86 in1011.2 mb 0.00 in0.0 mm 0.00 in0.0 mm 0.05 in1.3 mm
02:05 PM 44.2°F6.8°C 43.4°F6.3°C 97% 16.0 mph WNW25.7 kmh WNW 20.0 mph32.2 kmh 29.86 in1011.2 mb 0.00 in0.0 mm 0.00 in0.0 mm 0.05 in1.3 mm
02:10 PM 44.3°F6.8°C 43.2°F6.2°C 96% 13.0 mph WNW20.9 kmh WNW 18.0 mph29.0 kmh 29.86 in1011.2 mb 0.00 in0.0 mm 0.00 in0.0 mm 0.05 in1.3 mm
02:15 PM 44.3°F6.8°C 43.2°F6.2°C 96% 13.0 mph WNW20.9 kmh WNW 17.0 mph27.4 kmh 29.86 in1011.2 mb 0.00 in0.0 mm 0.00 in0.0 mm 0.05 in1.3 mm
02:20 PM 44.3°F6.8°C 43.2°F6.2°C 96% 12.0 mph WNW19.3 kmh WNW 17.0 mph27.4 kmh 29.86 in1011.2 mb 0.00 in0.0 mm 0.00 in0.0 mm 0.05 in1.3 mm
02:25 PM 44.1°F6.7°C 43.0°F6.1°C 96% 12.0 mph W19.3 kmh W 16.0 mph25.7 kmh 29.86 in1011.2 mb 0.00 in0.0 mm 0.00 in0.0 mm 0.05 in1.3 mm
02:30 PM 44.1°F6.7°C 43.0°F6.1°C 96% 12.0 mph WNW19.3 kmh WNW 16.0 mph25.7 kmh 29.85 in1010.8 mb 0.00 in0.0 mm 0.00 in0.0 mm 0.05 in1.3 mm
02:35 PM 44.0°F6.7°C 42.9°F6.1°C 96% 11.0 mph WNW17.7 kmh WNW 16.0 mph25.7 kmh 29.86 in1011.2 mb 0.00 in0.0 mm 0.00 in0.0 mm 0.05 in1.3 mm
02:40 PM 44.0°F6.7°C 42.9°F6.1°C 96% 13.0 mph W20.9 kmh W 17.0 mph27.4 kmh 29.85 in1010.8 mb 0.00 in0.0 mm 0.00 in0.0 mm 0.05 in1.3 mm
02:45 PM 43.9°F6.6°C 42.8°F6.0°C 96% 13.0 mph WNW20.9 kmh WNW 18.0 mph29.0 kmh 29.85 in1010.8 mb 0.00 in0.0 mm 0.00 in0.0 mm 0.05 in1.3 mm
02:50 PM 44.0°F6.7°C 42.9°F6.1°C 96% 12.0 mph WNW19.3 kmh WNW 16.0 mph25.7 kmh 29.85 in1010.8 mb 0.00 in0.0 mm 0.00 in0.0 mm 0.05 in1.3 mm
02:55 PM 43.9°F6.6°C 42.8°F6.0°C 96% 13.0 mph WNW20.9 kmh WNW 17.0 mph27.4 kmh 29.85 in1010.8 mb 0.00 in0.0 mm 0.00 in0.0 mm 0.05 in1.3 mm
03:00 PM 43.9°F6.6°C 42.6°F5.9°C 95% 15.0 mph WNW24.1 kmh WNW 20.0 mph32.2 kmh 29.84 in1010.5 mb 0.00 in0.0 mm 0.00 in0.0 mm 0.05 in1.3 mm
03:05 PM 43.8°F6.6°C 42.5°F5.8°C 95% 13.0 mph WNW20.9 kmh WNW 18.0 mph29.0 kmh 29.86 in1011.2 mb 0.00 in0.0 mm 0.00 in0.0 mm 0.05 in1.3 mm
03:10 PM 43.7°F6.5°C 42.4°F5.8°C 95% 12.0 mph WNW19.3 kmh WNW 17.0 mph27.4 kmh 29.85 in1010.8 mb 0.00 in0.0 mm 0.00 in0.0 mm 0.05 in1.3 mm
03:15 PM 43.6°F6.4°C 42.3°F5.7°C 95% 14.0 mph WNW22.5 kmh WNW 20.0 mph32.2 kmh 29.85 in1010.8 mb 0.00 in0.0 mm 0.00 in0.0 mm 0.05 in1.3 mm
03:20 PM 43.2°F6.2°C 41.9°F5.5°C 95% 14.0 mph WNW22.5 kmh WNW 19.0 mph30.6 kmh 29.85 in1010.8 mb 0.00 in0.0 mm 0.00 in0.0 mm 0.05 in1.3 mm
03:25 PM 43.1°F6.2°C 41.8°F5.4°C 95% 14.0 mph WNW22.5 kmh WNW 18.0 mph29.0 kmh 29.85 in1010.8 mb 0.00 in0.0 mm 0.00 in0.0 mm 0.05 in1.3 mm
03:30 PM 43.0°F6.1°C 41.7°F5.4°C 95% 13.0 mph WNW20.9 kmh WNW 17.0 mph27.4 kmh 29.86 in1011.2 mb 0.00 in0.0 mm 0.00 in0.0 mm 0.05 in1.3 mm
03:35 PM 42.9°F6.1°C 41.6°F5.3°C 95% 13.0 mph WNW20.9 kmh WNW 19.0 mph30.6 kmh 29.86 in1011.2 mb 0.00 in0.0 mm 0.00 in0.0 mm 0.05 in1.3 mm
03:40 PM 42.9°F6.1°C 41.3°F5.2°C 94% 14.0 mph WNW22.5 kmh WNW 18.0 mph29.0 kmh 29.86 in1011.2 mb 0.00 in0.0 mm 0.00 in0.0 mm 0.05 in1.3 mm
03:45 PM 42.8°F6.0°C 41.2°F5.1°C 94% 15.0 mph WNW24.1 kmh WNW 20.0 mph32.2 kmh 29.86 in1011.2 mb 0.00 in0.0 mm 0.00 in0.0 mm 0.05 in1.3 mm
03:50 PM 42.8°F6.0°C 41.5°F5.3°C 95% 12.0 mph WNW19.3 kmh WNW 15.0 mph24.1 kmh 29.86 in1011.2 mb 0.00 in0.0 mm 0.00 in0.0 mm 0.05 in1.3 mm
03:55 PM 42.7°F5.9°C 41.1°F5.1°C 94% 14.0 mph WNW22.5 kmh WNW 19.0 mph30.6 kmh 29.86 in1011.2 mb 0.00 in0.0 mm 0.00 in0.0 mm 0.05 in1.3 mm
04:00 PM 42.8°F6.0°C 41.2°F5.1°C 94% 12.0 mph WNW19.3 kmh WNW 17.0 mph27.4 kmh 29.86 in1011.2 mb 0.00 in0.0 mm 0.00 in0.0 mm 0.05 in1.3 mm
04:05 PM 42.8°F6.0°C 41.2°F5.1°C 94% 12.0 mph WNW19.3 kmh WNW 16.0 mph25.7 kmh 29.86 in1011.2 mb 0.00 in0.0 mm 0.00 in0.0 mm 0.05 in1.3 mm
04:10 PM 42.7°F5.9°C 41.1°F5.1°C 94% 14.0 mph WNW22.5 kmh WNW 20.0 mph32.2 kmh 29.86 in1011.2 mb 0.00 in0.0 mm 0.00 in0.0 mm 0.05 in1.3 mm
04:15 PM 42.7°F5.9°C 41.1°F5.1°C 94% 14.0 mph WNW22.5 kmh WNW 18.0 mph29.0 kmh 29.86 in1011.2 mb 0.00 in0.0 mm 0.00 in0.0 mm 0.05 in1.3 mm
04:20 PM 42.6°F5.9°C 41.0°F5.0°C 94% 12.0 mph WNW19.3 kmh WNW 16.0 mph25.7 kmh 29.86 in1011.2 mb 0.00 in0.0 mm 0.00 in0.0 mm 0.05 in1.3 mm
04:25 PM 42.6°F5.9°C 41.0°F5.0°C 94% 13.0 mph WNW20.9 kmh WNW 17.0 mph27.4 kmh 29.86 in1011.2 mb 0.00 in0.0 mm 0.00 in0.0 mm 0.05 in1.3 mm
04:30 PM 42.6°F5.9°C 41.0°F5.0°C 94% 13.0 mph WNW20.9 kmh WNW 18.0 mph29.0 kmh 29.86 in1011.2 mb 0.00 in0.0 mm 0.00 in0.0 mm 0.05 in1.3 mm
04:35 PM 42.5°F5.8°C 40.9°F4.9°C 94% 14.0 mph WNW22.5 kmh WNW 19.0 mph30.6 kmh 29.86 in1011.2 mb 0.00 in0.0 mm 0.00 in0.0 mm 0.05 in1.3 mm
04:40 PM 42.5°F5.8°C 40.9°F4.9°C 94% 13.0 mph WNW20.9 kmh WNW 17.0 mph27.4 kmh 29.86 in1011.2 mb 0.00 in0.0 mm 0.00 in0.0 mm 0.05 in1.3 mm
04:45 PM 42.4°F5.8°C 40.8°F4.9°C 94% 13.0 mph WNW20.9 kmh WNW 19.0 mph30.6 kmh 29.86 in1011.2 mb 0.00 in0.0 mm 0.00 in0.0 mm 0.05 in1.3 mm
04:50 PM 42.3°F5.7°C 40.7°F4.8°C 94% 14.0 mph WNW22.5 kmh WNW 19.0 mph30.6 kmh 29.86 in1011.2 mb 0.00 in0.0 mm 0.00 in0.0 mm 0.05 in1.3 mm
04:55 PM 42.1°F5.6°C 40.2°F4.6°C 93% 12.0 mph WNW19.3 kmh WNW 16.0 mph25.7 kmh 29.86 in1011.2 mb 0.00 in0.0 mm 0.00 in0.0 mm 0.05 in1.3 mm
05:00 PM 42.0°F5.6°C 40.1°F4.5°C 93% 12.0 mph WNW19.3 kmh WNW 15.0 mph24.1 kmh 29.86 in1011.2 mb 0.00 in0.0 mm 0.00 in0.0 mm 0.05 in1.3 mm
05:05 PM 41.8°F5.4°C 39.9°F4.4°C 93% 13.0 mph WNW20.9 kmh WNW 18.0 mph29.0 kmh 29.86 in1011.2 mb 0.00 in0.0 mm 0.00 in0.0 mm 0.05 in1.3 mm
05:10 PM 41.7°F5.4°C 39.8°F4.3°C 93% 12.0 mph WNW19.3 kmh WNW 16.0 mph25.7 kmh 29.86 in1011.2 mb 0.00 in0.0 mm 0.00 in0.0 mm 0.05 in1.3 mm
05:15 PM 41.6°F5.3°C 39.7°F4.3°C 93% 13.0 mph WNW20.9 kmh WNW 17.0 mph27.4 kmh 29.86 in1011.2 mb 0.00 in0.0 mm 0.00 in0.0 mm 0.05 in1.3 mm
05:20 PM 41.5°F5.3°C 39.6°F4.2°C 93% 12.0 mph WNW19.3 kmh WNW 16.0 mph25.7 kmh 29.86 in1011.2 mb 0.00 in0.0 mm 0.00 in0.0 mm 0.05 in1.3 mm
05:25 PM 41.4°F5.2°C 39.5°F4.2°C 93% 12.0 mph WNW19.3 kmh WNW 18.0 mph29.0 kmh 29.86 in1011.2 mb 0.00 in0.0 mm 0.00 in0.0 mm 0.05 in1.3 mm
05:30 PM 41.2°F5.1°C 39.3°F4.1°C 93% 14.0 mph WNW22.5 kmh WNW 20.0 mph32.2 kmh 29.86 in1011.2 mb 0.00 in0.0 mm 0.00 in0.0 mm 0.05 in1.3 mm
05:35 PM 41.1°F5.1°C 39.2°F4.0°C 93% 14.0 mph WNW22.5 kmh WNW 18.0 mph29.0 kmh 29.86 in1011.2 mb 0.00 in0.0 mm 0.00 in0.0 mm 0.05 in1.3 mm
05:40 PM 41.1°F5.1°C 39.2°F4.0°C 93% 13.0 mph WNW20.9 kmh WNW 17.0 mph27.4 kmh 29.86 in1011.2 mb 0.00 in0.0 mm 0.00 in0.0 mm 0.05 in1.3 mm
05:45 PM 41.0°F5.0°C 39.1°F3.9°C 93% 15.0 mph WNW24.1 kmh WNW 19.0 mph30.6 kmh 29.86 in1011.2 mb 0.00 in0.0 mm 0.00 in0.0 mm 0.05 in1.3 mm
05:50 PM 40.9°F4.9°C 39.0°F3.9°C 93% 15.0 mph WNW24.1 kmh WNW 19.0 mph30.6 kmh 29.86 in1011.2 mb 0.00 in0.0 mm 0.00 in0.0 mm 0.05 in1.3 mm
05:55 PM 40.9°F4.9°C 39.0°F3.9°C 93% 14.0 mph WNW22.5 kmh WNW 18.0 mph29.0 kmh 29.86 in1011.2 mb 0.00 in0.0 mm 0.00 in0.0 mm 0.05 in1.3 mm
06:00 PM 40.8°F4.9°C 38.9°F3.8°C 93% 13.0 mph WNW20.9 kmh WNW 18.0 mph29.0 kmh 29.86 in1011.2 mb 0.00 in0.0 mm 0.00 in0.0 mm 0.05 in1.3 mm
06:05 PM 40.8°F4.9°C 38.9°F3.8°C 93% 16.0 mph WNW25.7 kmh WNW 23.0 mph37.0 kmh 29.86 in1011.2 mb 0.00 in0.0 mm 0.00 in0.0 mm 0.05 in1.3 mm
06:10 PM 40.9°F4.9°C 39.0°F3.9°C 93% 14.0 mph WNW22.5 kmh WNW 18.0 mph29.0 kmh 29.86 in1011.2 mb 0.00 in0.0 mm 0.00 in0.0 mm 0.05 in1.3 mm
06:15 PM 40.9°F4.9°C 39.0°F3.9°C 93% 14.0 mph WNW22.5 kmh WNW 19.0 mph30.6 kmh 29.86 in1011.2 mb 0.00 in0.0 mm 0.00 in0.0 mm 0.05 in1.3 mm
06:20 PM 40.9°F4.9°C 39.0°F3.9°C 93% 12.0 mph WNW19.3 kmh WNW 15.0 mph24.1 kmh 29.87 in1011.5 mb 0.00 in0.0 mm 0.00 in0.0 mm 0.05 in1.3 mm
06:25 PM 41.0°F5.0°C 39.1°F3.9°C 93% 12.0 mph WNW19.3 kmh WNW 16.0 mph25.7 kmh 29.87 in1011.5 mb 0.00 in0.0 mm 0.00 in0.0 mm 0.05 in1.3 mm
06:30 PM 41.0°F5.0°C 39.1°F3.9°C 93% 12.0 mph WNW19.3 kmh WNW 16.0 mph25.7 kmh 29.87 in1011.5 mb 0.00 in0.0 mm 0.00 in0.0 mm 0.05 in1.3 mm
06:35 PM 41.0°F5.0°C 39.1°F3.9°C 93% 13.0 mph WNW20.9 kmh WNW 18.0 mph29.0 kmh 29.87 in1011.5 mb 0.00 in0.0 mm 0.00 in0.0 mm 0.05 in1.3 mm
06:40 PM 41.0°F5.0°C 39.1°F3.9°C 93% 13.0 mph WNW20.9 kmh WNW 18.0 mph29.0 kmh 29.87 in1011.5 mb 0.00 in0.0 mm 0.00 in0.0 mm 0.05 in1.3 mm
06:45 PM 41.1°F5.1°C 39.2°F4.0°C 93% 12.0 mph WNW19.3 kmh WNW 19.0 mph30.6 kmh 29.87 in1011.5 mb 0.00 in0.0 mm 0.00 in0.0 mm 0.05 in1.3 mm
06:50 PM 41.1°F5.1°C 39.2°F4.0°C 93% 13.0 mph WNW20.9 kmh WNW 18.0 mph29.0 kmh 29.87 in1011.5 mb 0.00 in0.0 mm 0.00 in0.0 mm 0.05 in1.3 mm
06:55 PM 41.0°F5.0°C 39.1°F3.9°C 93% 14.0 mph WNW22.5 kmh WNW 19.0 mph30.6 kmh 29.87 in1011.5 mb 0.00 in0.0 mm 0.00 in0.0 mm 0.05 in1.3 mm
07:00 PM 40.9°F4.9°C 39.0°F3.9°C 93% 13.0 mph WNW20.9 kmh WNW 18.0 mph29.0 kmh 29.87 in1011.5 mb 0.00 in0.0 mm 0.00 in0.0 mm 0.05 in1.3 mm
07:05 PM 40.7°F4.8°C 38.8°F3.8°C 93% 13.0 mph WNW20.9 kmh WNW 17.0 mph27.4 kmh 29.87 in1011.5 mb 0.00 in0.0 mm 0.00 in0.0 mm 0.05 in1.3 mm
07:10 PM 40.6°F4.8°C 38.7°F3.7°C 93% 12.0 mph WNW19.3 kmh WNW 18.0 mph29.0 kmh 29.88 in1011.9 mb 0.00 in0.0 mm 0.00 in0.0 mm 0.05 in1.3 mm
07:15 PM 40.4°F4.7°C 38.5°F3.6°C 93% 11.0 mph WNW17.7 kmh WNW 15.0 mph24.1 kmh 29.88 in1011.9 mb 0.00 in0.0 mm 0.00 in0.0 mm 0.05 in1.3 mm
07:20 PM 40.1°F4.5°C 38.0°F3.3°C 92% 13.0 mph WNW20.9 kmh WNW 18.0 mph29.0 kmh 29.87 in1011.5 mb 0.00 in0.0 mm 0.00 in0.0 mm 0.05 in1.3 mm
07:25 PM 39.9°F4.4°C 38.0°F3.3°C 93% 13.0 mph WNW20.9 kmh WNW 18.0 mph29.0 kmh 29.88 in1011.9 mb 0.00 in0.0 mm 0.00 in0.0 mm 0.05 in1.3 mm
07:30 PM 39.8°F4.3°C 37.9°F3.3°C 93% 12.0 mph WNW19.3 kmh WNW 16.0 mph25.7 kmh 29.88 in1011.9 mb 0.00 in0.0 mm 0.00 in0.0 mm 0.05 in1.3 mm
07:35 PM 39.7°F4.3°C 37.8°F3.2°C 93% 13.0 mph WNW20.9 kmh WNW 17.0 mph27.4 kmh 29.88 in1011.9 mb 0.00 in0.0 mm 0.00 in0.0 mm 0.05 in1.3 mm
07:40 PM 39.6°F4.2°C 37.7°F3.2°C 93% 13.0 mph WNW20.9 kmh WNW 14.0 mph22.5 kmh 29.88 in1011.9 mb 0.00 in0.0 mm 0.00 in0.0 mm 0.05 in1.3 mm
07:45 PM 39.5°F4.2°C 37.4°F3.0°C 92% 12.0 mph WNW19.3 kmh WNW 16.0 mph25.7 kmh 29.88 in1011.9 mb 0.00 in0.0 mm 0.00 in0.0 mm 0.05 in1.3 mm
07:50 PM 39.3°F4.1°C 37.4°F3.0°C 93% 12.0 mph WNW19.3 kmh WNW 14.0 mph22.5 kmh 29.88 in1011.9 mb 0.00 in0.0 mm 0.00 in0.0 mm 0.05 in1.3 mm
07:55 PM 39.2°F4.0°C 37.3°F2.9°C 93% 12.0 mph WNW19.3 kmh WNW 15.0 mph24.1 kmh 29.89 in1012.2 mb 0.00 in0.0 mm 0.00 in0.0 mm 0.05 in1.3 mm
08:00 PM 39.1°F3.9°C 37.0°F2.8°C 92% 12.0 mph WNW19.3 kmh WNW 15.0 mph24.1 kmh 29.88 in1011.9 mb 0.00 in0.0 mm 0.00 in0.0 mm 0.05 in1.3 mm
08:05 PM 39.0°F3.9°C 37.2°F2.9°C 93% 12.0 mph WNW19.3 kmh WNW 16.0 mph25.7 kmh 29.89 in1012.2 mb 0.00 in0.0 mm 0.00 in0.0 mm 0.05 in1.3 mm
08:10 PM 38.9°F3.8°C 37.1°F2.8°C 93% 11.0 mph WNW17.7 kmh WNW 17.0 mph27.4 kmh 29.89 in1012.2 mb 0.00 in0.0 mm 0.00 in0.0 mm 0.05 in1.3 mm
08:15 PM 38.8°F3.8°C 37.0°F2.8°C 93% 12.0 mph WNW19.3 kmh WNW 15.0 mph24.1 kmh 29.89 in1012.2 mb 0.00 in0.0 mm 0.00 in0.0 mm 0.05 in1.3 mm
08:20 PM 38.7°F3.7°C 36.9°F2.7°C 93% 12.0 mph WNW19.3 kmh WNW 15.0 mph24.1 kmh 29.89 in1012.2 mb 0.00 in0.0 mm 0.00 in0.0 mm 0.05 in1.3 mm
08:25 PM 38.6°F3.7°C 36.8°F2.7°C 93% 12.0 mph WNW19.3 kmh WNW 17.0 mph27.4 kmh 29.89 in1012.2 mb 0.00 in0.0 mm 0.00 in0.0 mm 0.05 in1.3 mm
08:30 PM 38.5°F3.6°C 36.7°F2.6°C 93% 11.0 mph WNW17.7 kmh WNW 14.0 mph22.5 kmh 29.89 in1012.2 mb 0.00 in0.0 mm 0.00 in0.0 mm 0.05 in1.3 mm
08:35 PM 38.5°F3.6°C 36.7°F2.6°C 93% 12.0 mph WNW19.3 kmh WNW 17.0 mph27.4 kmh 29.89 in1012.2 mb 0.00 in0.0 mm 0.00 in0.0 mm 0.05 in1.3 mm
08:40 PM 38.4°F3.6°C 36.6°F2.6°C 93% 12.0 mph WNW19.3 kmh WNW 15.0 mph24.1 kmh 29.89 in1012.2 mb 0.00 in0.0 mm 0.00 in0.0 mm 0.05 in1.3 mm
08:45 PM 38.4°F3.6°C 36.6°F2.6°C 93% 13.0 mph WNW20.9 kmh WNW 17.0 mph27.4 kmh 29.89 in1012.2 mb 0.00 in0.0 mm 0.00 in0.0 mm 0.05 in1.3 mm
08:50 PM 38.3°F3.5°C 36.5°F2.5°C 93% 13.0 mph WNW20.9 kmh WNW 17.0 mph27.4 kmh 29.89 in1012.2 mb 0.00 in0.0 mm 0.00 in0.0 mm 0.05 in1.3 mm
08:55 PM 38.3°F3.5°C 36.5°F2.5°C 93% 12.0 mph WNW19.3 kmh WNW 16.0 mph25.7 kmh 29.89 in1012.2 mb 0.00 in0.0 mm 0.00 in0.0 mm 0.05 in1.3 mm
09:00 PM 38.2°F3.4°C 36.4°F2.4°C 93% 12.0 mph WNW19.3 kmh WNW 17.0 mph27.4 kmh 29.89 in1012.2 mb 0.00 in0.0 mm 0.00 in0.0 mm 0.05 in1.3 mm
09:05 PM 38.2°F3.4°C 36.4°F2.4°C 93% 12.0 mph WNW19.3 kmh WNW 16.0 mph25.7 kmh 29.89 in1012.2 mb 0.00 in0.0 mm 0.00 in0.0 mm 0.05 in1.3 mm
09:10 PM 38.1°F3.4°C 36.3°F2.4°C 93% 12.0 mph WNW19.3 kmh WNW 17.0 mph27.4 kmh 29.90 in1012.5 mb 0.00 in0.0 mm 0.00 in0.0 mm 0.05 in1.3 mm
09:15 PM 37.9°F3.3°C 36.1°F2.3°C 93% 12.0 mph WNW19.3 kmh WNW 17.0 mph27.4 kmh 29.90 in1012.5 mb 0.00 in0.0 mm 0.00 in0.0 mm 0.05 in1.3 mm
09:20 PM 37.8°F3.2°C 36.0°F2.2°C 93% 12.0 mph WNW19.3 kmh WNW 15.0 mph24.1 kmh 29.90 in1012.5 mb 0.00 in0.0 mm 0.00 in0.0 mm 0.05 in1.3 mm
09:25 PM 37.8°F3.2°C 36.0°F2.2°C 93% 12.0 mph WNW19.3 kmh WNW 17.0 mph27.4 kmh 29.90 in1012.5 mb 0.00 in0.0 mm 0.00 in0.0 mm 0.05 in1.3 mm
09:30 PM 37.7°F3.2°C 35.9°F2.2°C 93% 13.0 mph WNW20.9 kmh WNW 17.0 mph27.4 kmh 29.90 in1012.5 mb 0.00 in0.0 mm 0.00 in0.0 mm 0.05 in1.3 mm
09:35 PM 37.6°F3.1°C 35.8°F2.1°C 93% 11.0 mph WNW17.7 kmh WNW 14.0 mph22.5 kmh 29.90 in1012.5 mb 0.00 in0.0 mm 0.00 in0.0 mm 0.05 in1.3 mm
09:40 PM 37.5°F3.1°C 35.7°F2.1°C 93% 12.0 mph WNW19.3 kmh WNW 15.0 mph24.1 kmh 29.90 in1012.5 mb 0.00 in0.0 mm 0.00 in0.0 mm 0.05 in1.3 mm
09:45 PM 37.4°F3.0°C 35.6°F2.0°C 93% 12.0 mph WNW19.3 kmh WNW 16.0 mph25.7 kmh 29.90 in1012.5 mb 0.00 in0.0 mm 0.00 in0.0 mm 0.05 in1.3 mm
09:50 PM 37.3°F2.9°C 35.5°F1.9°C 93% 11.0 mph WNW17.7 kmh WNW 14.0 mph22.5 kmh 29.90 in1012.5 mb 0.00 in0.0 mm 0.00 in0.0 mm 0.05 in1.3 mm
09:55 PM 37.2°F2.9°C 35.4°F1.9°C 93% 10.0 mph WNW16.1 kmh WNW 13.0 mph20.9 kmh 29.91 in1012.9 mb 0.00 in0.0 mm 0.00 in0.0 mm 0.05 in1.3 mm
10:00 PM 37.1°F2.8°C 35.3°F1.8°C 93% 11.0 mph WNW17.7 kmh WNW 14.0 mph22.5 kmh 29.91 in1012.9 mb 0.00 in0.0 mm 0.00 in0.0 mm 0.05 in1.3 mm
10:05 PM 36.9°F2.7°C 35.1°F1.7°C 93% 10.0 mph WNW16.1 kmh WNW 13.0 mph20.9 kmh 29.90 in1012.5 mb 0.00 in0.0 mm 0.00 in0.0 mm 0.05 in1.3 mm
10:10 PM 36.8°F2.7°C 35.0°F1.7°C 93% 11.0 mph WNW17.7 kmh WNW 15.0 mph24.1 kmh 29.91 in1012.9 mb 0.00 in0.0 mm 0.00 in0.0 mm 0.05 in1.3 mm
10:15 PM 36.7°F2.6°C 34.9°F1.6°C 93% 11.0 mph WNW17.7 kmh WNW 13.0 mph20.9 kmh 29.91 in1012.9 mb 0.00 in0.0 mm 0.00 in0.0 mm 0.05 in1.3 mm
10:20 PM 36.6°F2.6°C 35.0°F1.7°C 94% 11.0 mph WNW17.7 kmh WNW 14.0 mph22.5 kmh 29.91 in1012.9 mb 0.00 in0.0 mm 0.00 in0.0 mm 0.05 in1.3 mm
10:25 PM 36.5°F2.5°C 34.9°F1.6°C 94% 11.0 mph WNW17.7 kmh WNW 13.0 mph20.9 kmh 29.91 in1012.9 mb 0.00 in0.0 mm 0.00 in0.0 mm 0.05 in1.3 mm
10:30 PM 36.4°F2.4°C 34.6°F1.4°C 93% 11.0 mph WNW17.7 kmh WNW 14.0 mph22.5 kmh 29.91 in1012.9 mb 0.00 in0.0 mm 0.00 in0.0 mm 0.05 in1.3 mm
10:35 PM 36.3°F2.4°C 34.7°F1.5°C 94% 11.0 mph WNW17.7 kmh WNW 15.0 mph24.1 kmh 29.91 in1012.9 mb 0.00 in0.0 mm 0.00 in0.0 mm 0.05 in1.3 mm
10:40 PM 36.2°F2.3°C 34.6°F1.4°C 94% 11.0 mph WNW17.7 kmh WNW 14.0 mph22.5 kmh 29.91 in1012.9 mb 0.00 in0.0 mm 0.00 in0.0 mm 0.05 in1.3 mm
10:45 PM 36.1°F2.3°C 34.5°F1.4°C 94% 11.0 mph WNW17.7 kmh WNW 13.0 mph20.9 kmh 29.91 in1012.9 mb 0.00 in0.0 mm 0.00 in0.0 mm 0.05 in1.3 mm
10:50 PM 36.1°F2.3°C 34.5°F1.4°C 94% 12.0 mph W19.3 kmh W 14.0 mph22.5 kmh 29.91 in1012.9 mb 0.00 in0.0 mm 0.00 in0.0 mm 0.05 in1.3 mm
10:55 PM 36.1°F2.3°C 34.5°F1.4°C 94% 12.0 mph WNW19.3 kmh WNW 15.0 mph24.1 kmh 29.91 in1012.9 mb 0.00 in0.0 mm 0.00 in0.0 mm 0.05 in1.3 mm
11:00 PM 36.0°F2.2°C 34.4°F1.3°C 94% 11.0 mph W17.7 kmh W 15.0 mph24.1 kmh 29.91 in1012.9 mb 0.00 in0.0 mm 0.00 in0.0 mm 0.05 in1.3 mm
11:05 PM 35.9°F2.2°C 34.3°F1.3°C 94% 11.0 mph WNW17.7 kmh WNW 13.0 mph20.9 kmh 29.91 in1012.9 mb 0.00 in0.0 mm 0.00 in0.0 mm 0.05 in1.3 mm
11:10 PM 35.8°F2.1°C 34.2°F1.2°C 94% 12.0 mph WNW19.3 kmh WNW 14.0 mph22.5 kmh 29.91 in1012.9 mb 0.00 in0.0 mm 0.00 in0.0 mm 0.05 in1.3 mm
11:15 PM 35.8°F2.1°C 34.2°F1.2°C 94% 12.0 mph W19.3 kmh W 15.0 mph24.1 kmh 29.91 in1012.9 mb 0.00 in0.0 mm 0.00 in0.0 mm 0.05 in1.3 mm
11:20 PM 35.7°F2.1°C 34.1°F1.2°C 94% 11.0 mph WNW17.7 kmh WNW 14.0 mph22.5 kmh 29.91 in1012.9 mb 0.00 in0.0 mm 0.00 in0.0 mm 0.05 in1.3 mm
11:25 PM 35.7°F2.1°C 34.1°F1.2°C 94% 11.0 mph W17.7 kmh W 17.0 mph27.4 kmh 29.91 in1012.9 mb 0.00 in0.0 mm 0.00 in0.0 mm 0.05 in1.3 mm
11:30 PM 35.7°F2.1°C 34.1°F1.2°C 94% 12.0 mph W19.3 kmh W 15.0 mph24.1 kmh 29.91 in1012.9 mb 0.00 in0.0 mm 0.00 in0.0 mm 0.05 in1.3 mm
11:35 PM 35.6°F2.0°C 34.0°F1.1°C 94% 12.0 mph WNW19.3 kmh WNW 15.0 mph24.1 kmh 29.91 in1012.9 mb 0.00 in0.0 mm 0.00 in0.0 mm 0.05 in1.3 mm
11:40 PM 35.6°F2.0°C 34.0°F1.1°C 94% 12.0 mph WNW19.3 kmh WNW 16.0 mph25.7 kmh 29.91 in1012.9 mb 0.00 in0.0 mm 0.00 in0.0 mm 0.05 in1.3 mm
11:45 PM 35.6°F2.0°C 34.0°F1.1°C 94% 11.0 mph W17.7 kmh W 14.0 mph22.5 kmh 29.91 in1012.9 mb 0.00 in0.0 mm 0.00 in0.0 mm 0.05 in1.3 mm
11:50 PM 35.5°F1.9°C 33.9°F1.1°C 94% 10.0 mph W16.1 kmh W 14.0 mph22.5 kmh 29.91 in1012.9 mb 0.00 in0.0 mm 0.00 in0.0 mm 0.05 in1.3 mm
11:55 PM 35.4°F1.9°C 33.8°F1.0°C 94% 9.0 mph WNW14.5 kmh WNW 12.0 mph19.3 kmh 29.91 in1012.9 mb 0.00 in0.0 mm 0.00 in0.0 mm 0.05 in1.3 mm